Lincoln Boyhood National Mem, Indiana
Current Conditions -  °F | °C
As of 2:55 AM on Sunday 23 Nov 2014 (Local Time) from KHNB Reporting Station
Clear Clear  
Wind Chill: 52°   Ceiling: Unl
Heat Index: 52°   Visibility: 10mi
Dew Point: 39°   Wind: 6mph
Humidity: 62%   Direction: 170°S
Pressure: 29.97"   Gusts: NA
Location:  38.1283°N, 86.9862°W
Report Text: KHNB 230855Z AUTO 17005KT 10SM CLR 11/04 A2997 RMK AO1 57014
Loading
Personal Weather Stations






























Interactive Weather Map New forecast layout! Learn more

10-Day Weather Forecast

Advertisements
Track Severe Weather on mobile